Roxby Downs Olympic Dam, South Australia

2:04 AM ACST on September 02, 2015 (GMT +0930)
PortVic | | Change Station
CLOSE
Current Station
Personal Weather Station
Location: Port Victoria, SOUTH AUSTRALIA
Elevation: 72 ft
Nearby Weather Stations

Elev 72 ft 34.51 °S, 137.52 °E | Updated 5 minutes ago

Light Rain
Light Rain
53.0 °F
Feels Like 53.0 °F
N
8.0
Wind Variable Wind from NNE
Gusts 16.0 mph

Today
High -- | Low -- °F
--% Chance of Precip.
Yesterday
High -- | Low -- °F
Precip. -- in
6:38 AM 6:01 PM
Waning Gibbous, 88% visible
Pressure 29.74 in
Visibility 6.2 miles
Clouds Few 3200 ft
Overcast 5700 ft
Dew Point 50 °F
Humidity 90%
Rainfall 0.01 in
Snow Depth Not available.
UV 0 out of 12
Pollen Not available.
Air Quality Not available.
Flu Activity Not available.
METAR YPAD 011600Z 04009KT 9999 -RA FEW032 OVC057 11/10 Q1007 INTER 1600/1900 5000 SHRA SCT012 BKN030
Pressure 29.74 in
Visibility 6.2 miles
Clouds Few 3200 ft
Overcast 5700 ft
Dew Point 50 °F
Humidity 90%
Rainfall 0.01 in
Snow Depth Not available.
UV 0 out of 12
Pollen Not available.
Air Quality Not available.
Flu Activity Not available.
METAR YPAD 011600Z 04009KT 9999 -RA FEW032 OVC057 11/10 Q1007 INTER 1600/1900 5000 SHRA SCT012 BKN030

10-Day Weather Forecast

×

Almanac

Astronomy

Sep. 02, 2015 Rise Set
Actual Time
Civil Twilight
Nautical Twilight
Astronomical Twilight
Moon
Length of Visible Light
Length of Day
Tomorrow will be .
, % of the Moon is Illuminated

Today's Extremes

Country Highs Country Lows

Community

WunderPhotos

Upload Photos

1,851,548 photos uploaded!

WunderBlogs® & News

Nearby

Air Quality

  Air Quality AQ Index Pollutant
Not available.

Snow Depth

Station Depth Elevation

Earthquake Activity

City Distance Mag. Time & Date
Minimum magnitude displayed is 2.5.

Coastal Water Temperatures

Place Temperature

Stations

Nearby Weather Stations

Station Location Temp. Windchill Dew Point Humidity Wind Precip. Elev Updated Type